Time;durP1;ratioP1;P1;durP2;ratioP2;P2;SDS_P1;SDS_P2;PMS_P1;PMS_P2;Temp;Humidity;BMP_temperature;BMP_pressure;BME280_temperature;BME280_humidity;BME280_pressure;Samples;Min_cycle;Max_cycle;Signal;HPM_P1;HPM_P2
2023/10/03 00:02:00;;;;;;;18.48;6.32;;;24.40;48.90;;;;;;5127919;27;45348;-68
2023/10/03 00:04:27;;;;;;;13.05;5.82;;;24.40;48.90;;;;;;5127701;27;45365;-69
2023/10/03 00:06:54;;;;;;;14.75;6.43;;;24.30;48.90;;;;;;5128106;27;45438;-67
2023/10/03 00:09:21;;;;;;;21.27;5.97;;;24.30;48.90;;;;;;5128179;27;45307;-67
2023/10/03 00:11:49;;;;;;;12.68;6.75;;;24.30;48.70;;;;;;5127339;27;46736;-67
2023/10/03 00:14:16;;;;;;;12.95;5.68;;;24.30;48.70;;;;;;5127545;27;45401;-67
2023/10/03 00:16:44;;;;;;;15.57;6.03;;;24.30;48.80;;;;;;5127221;27;45293;-67
2023/10/03 00:19:11;;;;;;;12.73;6.07;;;24.30;48.90;;;;;;5128016;27;45239;-65
2023/10/03 00:21:38;;;;;;;11.50;5.43;;;24.30;48.90;;;;;;5127611;27;45310;-67
2023/10/03 00:24:06;;;;;;;13.80;6.28;;;24.20;48.90;;;;;;5127693;27;45246;-66
2023/10/03 00:26:33;;;;;;;12.95;6.13;;;24.20;48.80;;;;;;5127637;27;45244;-67
2023/10/03 00:29:03;;;;;;;11.85;5.70;;;24.20;48.80;;;;;;5127319;27;45430;-66
2023/10/03 00:31:30;;;;;;;10.25;5.53;;;24.20;48.90;;;;;;5127173;27;46397;-66
2023/10/03 00:33:57;;;;;;;11.55;6.00;;;24.20;49.00;;;;;;5127108;27;45459;-66
2023/10/03 00:36:25;;;;;;;12.10;5.88;;;24.20;49.10;;;;;;5127529;27;45282;-66
2023/10/03 00:38:52;;;;;;;12.00;5.95;;;24.20;49.10;;;;;;5127915;27;45575;-67
2023/10/03 00:41:19;;;;;;;12.25;5.63;;;24.10;49.10;;;;;;5126914;27;46377;-67
2023/10/03 00:43:58;;;;;;;11.38;5.40;;;24.10;49.00;;;;;;5126872;27;45517;-66
2023/10/03 00:46:29;;;;;;;11.25;6.03;;;24.10;49.10;;;;;;5127114;27;45215;-66
2023/10/03 00:48:56;;;;;;;11.73;5.40;;;24.10;49.10;;;;;;5127470;27;45393;-66
2023/10/03 00:51:24;;;;;;;10.43;5.07;;;24.10;49.10;;;;;;5127123;27;46930;-66
2023/10/03 00:53:55;;;;;;;11.38;5.47;;;24.10;49.10;;;;;;5127030;27;45264;-68
2023/10/03 00:56:22;;;;;;;12.20;5.88;;;24.10;49.20;;;;;;5127404;27;45313;-69
2023/10/03 00:58:51;;;;;;;10.60;5.63;;;24.00;49.20;;;;;;5127426;27;45244;-68
2023/10/03 01:01:19;;;;;;;12.30;5.63;;;24.00;49.30;;;;;;5126761;27;45396;-67
2023/10/03 01:03:49;;;;;;;10.55;5.70;;;24.00;49.30;;;;;;5126774;27;45351;-67
2023/10/03 01:06:16;;;;;;;10.73;5.40;;;24.00;49.30;;;;;;5127221;27;45290;-67
2023/10/03 01:08:46;;;;;;;10.25;5.20;;;24.00;49.30;;;;;;5127300;27;45369;-67
2023/10/03 01:11:15;;;;;;;11.75;5.50;;;23.90;49.30;;;;;;5126994;27;45267;-67
2023/10/03 01:13:42;;;;;;;12.25;5.85;;;23.90;49.30;;;;;;5126691;27;45355;-67
2023/10/03 01:16:12;;;;;;;8.80;5.35;;;23.90;49.30;;;;;;5126839;27;45316;-67
2023/10/03 01:18:41;;;;;;;12.65;5.60;;;23.90;49.30;;;;;;5127176;27;45402;-67
2023/10/03 01:21:13;;;;;;;8.75;4.70;;;23.90;49.30;;;;;;5126601;27;45458;-67
2023/10/03 01:23:42;;;;;;;12.90;5.35;;;23.90;49.30;;;;;;5126540;27;45193;-67
2023/10/03 01:26:09;;;;;;;9.30;4.82;;;23.80;49.30;;;;;;5126995;27;45469;-67
2023/10/03 01:28:38;;;;;;;9.40;5.40;;;23.80;49.20;;;;;;5127952;27;45414;-65
2023/10/03 01:31:05;;;;;;;8.38;5.35;;;23.80;49.20;;;;;;5129586;27;45400;-65
2023/10/03 01:33:33;;;;;;;9.90;4.88;;;23.80;49.20;;;;;;5129868;27;45321;-66
2023/10/03 01:36:01;;;;;;;9.65;4.90;;;23.80;49.20;;;;;;5130180;27;45311;-66
2023/10/03 01:38:28;;;;;;;8.82;4.93;;;23.80;49.20;;;;;;5130387;27;45578;-67
2023/10/03 01:40:58;;;;;;;8.60;5.30;;;23.80;49.20;;;;;;5129850;27;45268;-66
2023/10/03 01:43:24;;;;;;;8.00;4.90;;;23.80;49.20;;;;;;5129814;27;45473;-66
2023/10/03 01:45:52;;;;;;;7.95;4.75;;;23.80;49.20;;;;;;5129846;27;45377;-65
2023/10/03 01:48:19;;;;;;;11.95;5.55;;;23.70;49.10;;;;;;5130214;27;45269;-67
2023/10/03 01:50:45;;;;;;;9.77;4.80;;;23.70;49.20;;;;;;5129666;27;45301;-67
2023/10/03 01:53:12;;;;;;;9.90;4.70;;;23.70;49.20;;;;;;5129552;27;45316;-67
2023/10/03 01:55:39;;;;;;;10.10;5.10;;;23.70;49.20;;;;;;5129892;27;45510;-67
2023/10/03 01:58:07;;;;;;;9.57;4.90;;;23.70;49.20;;;;;;5129916;27;45339;-68
2023/10/03 02:00:35;;;;;;;8.75;4.60;;;23.60;49.20;;;;;;5129702;27;45266;-70
2023/10/03 02:03:05;;;;;;;8.57;4.20;;;23.60;49.10;;;;;;5129811;27;45254;-68
2023/10/03 02:05:33;;;;;;;8.93;4.82;;;23.70;49.20;;;;;;5129784;27;45254;-66
2023/10/03 02:08:07;;;;;;;7.65;4.63;;;23.60;49.20;;;;;;5129781;27;45615;-66
2023/10/03 02:10:35;;;;;;;8.70;4.53;;;23.60;49.20;;;;;;5129338;27;45474;-66
2023/10/03 02:13:06;;;;;;;8.38;4.43;;;23.60;49.20;;;;;;5129391;27;45251;-66
2023/10/03 02:15:36;;;;;;;8.07;4.45;;;23.60;49.20;;;;;;5129636;27;45384;-66
2023/10/03 02:18:04;;;;;;;8.95;4.55;;;23.60;49.20;;;;;;5129598;27;45370;-66
2023/10/03 02:20:35;;;;;;;9.00;4.85;;;23.60;49.20;;;;;;5129148;27;45431;-67
2023/10/03 02:23:05;;;;;;;7.45;4.80;;;23.50;49.20;;;;;;5128965;27;45263;-65
2023/10/03 02:25:35;;;;;;;9.70;5.32;;;23.50;49.20;;;;;;5129356;27;45169;-66
2023/10/03 02:28:05;;;;;;;10.05;4.80;;;23.50;49.20;;;;;;5129853;27;44769;-66
2023/10/03 02:30:32;;;;;;;7.20;4.22;;;23.50;49.20;;;;;;5128954;27;46714;-67
2023/10/03 02:33:12;;;;;;;10.38;4.90;;;23.50;49.20;;;;;;5129105;27;45326;-66
2023/10/03 02:35:40;;;;;;;9.15;4.35;;;23.50;49.30;;;;;;5129368;27;45462;-66
2023/10/03 02:38:09;;;;;;;8.63;4.55;;;23.50;49.30;;;;;;5129497;27;45435;-66
2023/10/03 02:40:36;;;;;;;8.77;4.32;;;23.50;49.30;;;;;;5128535;27;46825;-65
2023/10/03 02:43:06;;;;;;;6.45;4.00;;;23.40;49.20;;;;;;5129058;27;45287;-66
2023/10/03 02:45:33;;;;;;;7.18;4.13;;;23.40;49.20;;;;;;5129287;27;45286;-66
2023/10/03 02:48:09;;;;;;;8.45;4.50;;;23.40;49.20;;;;;;5129285;27;45459;-66
2023/10/03 02:50:38;;;;;;;9.55;4.55;;;23.40;49.20;;;;;;5128760;27;45318;-66
2023/10/03 02:53:12;;;;;;;6.90;4.10;;;23.30;49.30;;;;;;5128863;27;45458;-66
2023/10/03 02:55:39;;;;;;;7.22;4.00;;;23.30;49.30;;;;;;5129008;27;45358;-66
2023/10/03 02:58:06;;;;;;;8.52;4.30;;;23.30;49.30;;;;;;5129300;27;45371;-67
2023/10/03 03:00:35;;;;;;;7.43;4.13;;;23.30;49.20;;;;;;5128608;27;45362;-67
2023/10/03 03:03:06;;;;;;;8.05;4.38;;;23.30;49.30;;;;;;5128607;27;45387;-66
2023/10/03 03:05:36;;;;;;;6.05;3.63;;;23.30;49.30;;;;;;5128941;27;45182;-68
2023/10/03 03:08:10;;;;;;;6.47;3.83;;;23.30;49.30;;;;;;5128967;27;45320;-68
2023/10/03 03:10:38;;;;;;;8.50;4.65;;;23.30;49.30;;;;;;5128659;27;45282;-68
2023/10/03 03:13:05;;;;;;;9.18;5.00;;;23.30;49.30;;;;;;5128697;27;45384;-68
2023/10/03 03:15:37;;;;;;;6.78;4.15;;;23.30;49.30;;;;;;5128759;27;45349;-68
2023/10/03 03:18:05;;;;;;;7.03;4.40;;;23.30;49.30;;;;;;5129108;27;45323;-67
2023/10/03 03:20:37;;;;;;;6.75;4.03;;;23.30;49.30;;;;;;5128438;27;47289;-67
2023/10/03 03:23:06;;;;;;;6.75;3.92;;;23.20;49.30;;;;;;5128145;27;45337;-67
2023/10/03 03:25:36;;;;;;;6.57;3.60;;;23.20;49.30;;;;;;5128417;27;45337;-67
2023/10/03 03:28:13;;;;;;;7.15;3.85;;;23.20;49.30;;;;;;5128347;27;45426;-67
2023/10/03 03:30:45;;;;;;;7.00;3.80;;;23.20;49.30;;;;;;5127741;27;46656;-67
2023/10/03 03:33:14;;;;;;;5.97;3.83;;;23.20;49.30;;;;;;5128152;27;45380;-67
2023/10/03 03:35:42;;;;;;;6.53;4.00;;;23.20;49.30;;;;;;5128132;27;45133;-67
2023/10/03 03:38:15;;;;;;;8.27;4.32;;;23.20;49.30;;;;;;5128179;27;45307;-67
2023/10/03 03:40:45;;;;;;;6.40;3.83;;;23.20;49.30;;;;;;5128040;27;46346;-67
2023/10/03 03:43:13;;;;;;;6.05;3.85;;;23.20;49.30;;;;;;5128116;27;45261;-67
2023/10/03 03:45:40;;;;;;;7.40;4.05;;;23.20;49.30;;;;;;5127994;27;45302;-66
2023/10/03 03:48:07;;;;;;;6.55;3.67;;;23.20;49.30;;;;;;5128216;27;45247;-66
2023/10/03 03:50:35;;;;;;;6.97;3.38;;;23.20;49.30;;;;;;5126991;27;47018;-65
2023/10/03 03:53:03;;;;;;;8.60;4.10;;;23.10;49.30;;;;;;5127581;27;45310;-66
2023/10/03 03:55:30;;;;;;;6.50;3.60;;;23.10;49.30;;;;;;5127872;27;45296;-65
2023/10/03 03:57:59;;;;;;;6.53;3.78;;;23.10;49.30;;;;;;5127926;27;45318;-67
2023/10/03 04:00:28;;;;;;;5.93;3.50;;;23.20;49.30;;;;;;5127454;27;46655;-65
2023/10/03 04:02:59;;;;;;;8.27;3.95;;;23.10;49.30;;;;;;5127560;27;45309;-65
2023/10/03 04:05:27;;;;;;;8.13;3.67;;;23.10;49.30;;;;;;5127714;27;45503;-66
2023/10/03 04:07:57;;;;;;;8.40;3.70;;;23.10;49.30;;;;;;5127935;27;45170;-68
2023/10/03 04:10:23;;;;;;;7.00;3.80;;;23.10;49.30;;;;;;5128463;27;47697;-67
2023/10/03 04:12:51;;;;;;;7.63;3.72;;;23.10;49.30;;;;;;5127719;27;45343;-67
2023/10/03 04:15:19;;;;;;;5.75;3.47;;;23.10;49.30;;;;;;5127959;27;45345;-67
2023/10/03 04:17:48;;;;;;;5.95;3.92;;;23.10;49.30;;;;;;5128051;27;45427;-67
2023/10/03 04:20:21;;;;;;;5.38;3.50;;;23.10;49.20;;;;;;5127530;27;45640;-67
2023/10/03 04:22:50;;;;;;;6.47;3.85;;;23.10;49.20;;;;;;5127458;27;45407;-67
2023/10/03 04:25:19;;;;;;;6.28;3.70;;;23.10;49.20;;;;;;5127765;27;45310;-67
2023/10/03 04:27:47;;;;;;;5.90;4.00;;;23.10;49.20;;;;;;5127949;27;45266;-67
2023/10/03 04:30:14;;;;;;;7.18;3.78;;;23.10;49.20;;;;;;5126897;27;45318;-67
2023/10/03 04:32:42;;;;;;;6.22;3.47;;;23.10;49.20;;;;;;5127750;27;45415;-66
2023/10/03 04:35:12;;;;;;;6.32;3.78;;;23.10;49.20;;;;;;5127799;27;45325;-67
2023/10/03 04:37:40;;;;;;;4.47;3.42;;;23.10;49.10;;;;;;5127847;27;45293;-66
2023/10/03 04:40:10;;;;;;;5.97;3.42;;;23.10;49.20;;;;;;5127383;27;46670;-67
2023/10/03 04:42:40;;;;;;;5.82;3.60;;;23.10;49.10;;;;;;5127468;27;45212;-66
2023/10/03 04:45:10;;;;;;;5.43;3.05;;;23.10;49.20;;;;;;5127538;27;45357;-67
2023/10/03 04:47:38;;;;;;;7.05;3.85;;;23.10;49.10;;;;;;5127717;27;45596;-67
2023/10/03 04:50:06;;;;;;;5.63;3.80;;;23.10;49.10;;;;;;5127255;27;46697;-65
2023/10/03 04:52:33;;;;;;;5.68;3.55;;;23.10;49.10;;;;;;5127431;27;45318;-67
2023/10/03 04:55:00;;;;;;;6.40;3.92;;;23.10;49.10;;;;;;5127386;27;45255;-65
2023/10/03 04:57:27;;;;;;;7.50;3.53;;;23.10;49.10;;;;;;5127586;27;45394;-65
2023/10/03 04:59:56;;;;;;;6.50;3.75;;;23.10;49.10;;;;;;5124396;27;45504;-67
2023/10/03 05:02:23;;;;;;;5.75;3.28;;;23.10;49.10;;;;;;5128012;27;45406;-65
2023/10/03 05:04:50;;;;;;;6.22;3.63;;;23.10;49.10;;;;;;5130956;27;45266;-68
2023/10/03 05:07:17;;;;;;;5.40;3.42;;;23.10;49.10;;;;;;5131335;27;45191;-65
2023/10/03 05:09:43;;;;;;;5.22;2.95;;;23.10;49.10;;;;;;5131024;27;47296;-66
2023/10/03 05:12:10;;;;;;;5.05;3.20;;;23.10;49.10;;;;;;5130750;27;45358;-67
2023/10/03 05:14:40;;;;;;;5.55;3.53;;;23.10;49.10;;;;;;5130908;27;45386;-65
2023/10/03 05:17:08;;;;;;;4.85;2.90;;;23.10;49.00;;;;;;5130997;27;45417;-65
2023/10/03 05:19:36;;;;;;;5.45;3.20;;;23.10;48.90;;;;;;5130350;27;45486;-65
2023/10/03 05:22:04;;;;;;;6.53;3.60;;;23.10;49.00;;;;;;5130903;27;45343;-65
2023/10/03 05:24:32;;;;;;;5.90;3.30;;;23.10;48.90;;;;;;5130648;27;45264;-65
2023/10/03 05:26:59;;;;;;;5.53;3.38;;;23.10;48.90;;;;;;5130753;27;45401;-67
2023/10/03 05:29:27;;;;;;;5.95;3.28;;;23.10;49.00;;;;;;5130061;27;46672;-67
2023/10/03 05:31:54;;;;;;;4.97;3.03;;;23.10;49.00;;;;;;5130456;27;45358;-67
2023/10/03 05:34:22;;;;;;;6.07;3.50;;;23.10;48.90;;;;;;5130795;27;45342;-66
2023/10/03 05:36:49;;;;;;;4.70;2.83;;;23.10;48.90;;;;;;5130647;27;45390;-67
2023/10/03 05:39:16;;;;;;;5.40;3.10;;;23.10;48.90;;;;;;5130321;27;46367;-67
2023/10/03 05:41:43;;;;;;;5.15;3.00;;;23.10;48.90;;;;;;5130301;27;45340;-67
2023/10/03 05:44:11;;;;;;;4.68;3.20;;;23.10;48.90;;;;;;5130366;27;45428;-67
2023/10/03 05:46:39;;;;;;;4.55;2.88;;;23.10;48.90;;;;;;5130429;27;45544;-68
2023/10/03 05:49:06;;;;;;;5.32;3.05;;;23.10;48.90;;;;;;5130108;27;45389;-67
2023/10/03 05:51:34;;;;;;;4.70;2.88;;;23.10;48.90;;;;;;5130521;27;45330;-67
2023/10/03 05:54:02;;;;;;;5.15;3.20;;;23.10;48.90;;;;;;5130438;27;45321;-67
2023/10/03 05:56:28;;;;;;;5.78;2.85;;;23.10;48.90;;;;;;5130773;27;45481;-67
2023/10/03 05:58:55;;;;;;;4.35;3.22;;;23.10;48.90;;;;;;5130173;27;46404;-67
2023/10/03 06:01:22;;;;;;;5.90;3.13;;;23.10;48.90;;;;;;5129996;27;45421;-67
2023/10/03 06:03:49;;;;;;;5.13;3.10;;;23.10;48.90;;;;;;5129709;27;45287;-67
2023/10/03 06:06:16;;;;;;;5.20;3.20;;;23.00;48.90;;;;;;5128371;27;45406;-68
2023/10/03 06:08:48;;;;;;;6.30;3.10;;;23.10;48.90;;;;;;5128085;27;45642;-65
2023/10/03 06:11:15;;;;;;;6.25;3.00;;;23.10;48.80;;;;;;5122306;27;45480;-67
2023/10/03 06:13:44;;;;;;;4.05;2.97;;;23.10;48.90;;;;;;5125781;27;45470;-65
2023/10/03 06:16:12;;;;;;;4.03;2.75;;;23.10;48.80;;;;;;5127883;27;45625;-67
2023/10/03 06:18:39;;;;;;;6.45;3.50;;;23.10;48.80;;;;;;5124755;27;45514;-66
2023/10/03 06:21:07;;;;;;;5.07;2.88;;;23.10;48.80;;;;;;5126743;27;45346;-70
2023/10/03 06:23:34;;;;;;;9.02;3.25;;;23.10;48.80;;;;;;5128985;27;45294;-68
2023/10/03 06:26:02;;;;;;;7.20;3.05;;;23.20;48.80;;;;;;5129405;27;45267;-69
2023/10/03 06:28:29;;;;;;;5.47;3.30;;;23.20;48.80;;;;;;5129438;27;46412;-71
2023/10/03 06:30:56;;;;;;;5.13;3.10;;;23.20;48.90;;;;;;5128673;27;45393;-70
2023/10/03 06:33:23;;;;;;;3.63;2.28;;;23.20;48.90;;;;;;5129194;27;45521;-70
2023/10/03 06:35:51;;;;;;;4.03;2.72;;;23.20;48.80;;;;;;5130122;27;45298;-70
2023/10/03 06:38:19;;;;;;;3.42;2.95;;;23.20;48.80;;;;;;5128737;27;46205;-68
2023/10/03 06:40:46;;;;;;;6.68;2.80;;;23.20;48.80;;;;;;5127686;27;45574;-69
2023/10/03 06:43:14;;;;;;;7.72;2.88;;;23.20;48.80;;;;;;5129047;27;45329;-67
2023/10/03 06:45:42;;;;;;;4.95;3.05;;;23.30;48.80;;;;;;5130017;27;45401;-67
2023/10/03 06:48:10;;;;;;;4.32;3.22;;;23.30;48.80;;;;;;5129176;27;45560;-68
2023/10/03 06:50:37;;;;;;;3.92;2.60;;;23.30;48.70;;;;;;5128809;27;45475;-71
2023/10/03 06:53:05;;;;;;;3.75;2.83;;;23.30;48.70;;;;;;5128731;27;45114;-67
2023/10/03 06:55:35;;;;;;;4.78;2.80;;;23.30;48.70;;;;;;5128018;27;45587;-69
2023/10/03 06:58:03;;;;;;;7.78;2.80;;;23.30;48.60;;;;;;5128386;27;45440;-67
2023/10/03 07:00:32;;;;;;;4.28;2.95;;;23.30;48.60;;;;;;5127799;27;45210;-67
2023/10/03 07:02:59;;;;;;;3.75;3.00;;;23.30;48.60;;;;;;5124658;27;45505;-66
2023/10/03 07:05:26;;;;;;;5.47;3.28;;;23.40;48.60;;;;;;5127762;27;45364;-70
2023/10/03 07:07:53;;;;;;;6.88;3.22;;;23.40;48.70;;;;;;5121397;27;46651;-66
2023/10/03 07:10:21;;;;;;;5.35;3.05;;;23.40;49.20;;;;;;5126550;27;45411;-66
2023/10/03 07:12:48;;;;;;;6.13;3.00;;;23.40;48.60;;;;;;5118871;27;45381;-67
2023/10/03 07:15:15;;;;;;;11.00;3.15;;;23.40;48.60;;;;;;5115632;27;45472;-67
2023/10/03 07:17:45;;;;;;;5.68;2.95;;;23.50;48.60;;;;;;5114573;27;46412;-68
2023/10/03 07:20:13;;;;;;;6.57;3.30;;;23.50;48.60;;;;;;5114015;27;45373;-65
2023/10/03 07:22:40;;;;;;;10.57;3.20;;;23.50;48.60;;;;;;5119695;27;45412;-67
2023/10/03 07:25:09;;;;;;;12.65;3.20;;;23.50;48.80;;;;;;5114807;27;45244;-67
2023/10/03 07:27:36;;;;;;;6.68;3.67;;;23.50;48.80;;;;;;5118434;27;46547;-67
2023/10/03 07:30:03;;;;;;;7.90;3.05;;;23.50;48.70;;;;;;5121079;27;45370;-64
2023/10/03 07:32:32;;;;;;;5.90;3.20;;;23.50;48.70;;;;;;5117958;27;45495;-65
2023/10/03 07:35:01;;;;;;;8.00;3.40;;;23.50;48.60;;;;;;5125694;27;45549;-66
2023/10/03 07:37:27;;;;;;;6.60;2.85;;;23.60;48.60;;;;;;5120871;27;45447;-64
2023/10/03 07:39:55;;;;;;;8.55;3.03;;;23.60;48.60;;;;;;5106050;27;45384;-64
2023/10/03 07:42:23;;;;;;;7.50;3.47;;;23.60;48.50;;;;;;5120085;27;45473;-65
2023/10/03 07:44:52;;;;;;;5.75;3.08;;;23.60;48.40;;;;;;5114623;27;45185;-65
2023/10/03 07:47:20;;;;;;;6.40;3.15;;;23.60;48.40;;;;;;5123864;27;46643;-66
2023/10/03 07:49:48;;;;;;;5.57;3.03;;;23.60;48.40;;;;;;5126682;27;45317;-65
2023/10/03 07:52:18;;;;;;;11.60;2.90;;;23.70;48.40;;;;;;5116831;27;45655;-65
2023/10/03 07:54:49;;;;;;;4.97;3.15;;;23.70;48.30;;;;;;5126331;27;45471;-64
2023/10/03 07:57:16;;;;;;;5.28;2.90;;;23.70;48.20;;;;;;5124838;27;45365;-66
2023/10/03 07:59:43;;;;;;;7.68;3.05;;;23.70;48.20;;;;;;5117471;27;45517;-63
2023/10/03 08:02:11;;;;;;;5.85;2.78;;;23.80;48.10;;;;;;5116719;27;45299;-65
2023/10/03 08:04:40;;;;;;;4.65;3.15;;;23.80;48.00;;;;;;5123315;27;45318;-64
2023/10/03 08:07:07;;;;;;;5.90;3.15;;;23.80;47.80;;;;;;5115663;27;46718;-65
2023/10/03 08:09:35;;;;;;;6.07;3.00;;;23.80;47.80;;;;;;5119313;27;45376;-63
2023/10/03 08:12:11;;;;;;;4.97;3.05;;;23.90;47.80;;;;;;5118948;27;45434;-65
2023/10/03 08:14:39;;;;;;;6.03;3.13;;;23.90;47.80;;;;;;5121623;27;45510;-65
2023/10/03 08:17:06;;;;;;;4.88;3.08;;;23.90;47.60;;;;;;5110283;27;46677;-65
2023/10/03 08:19:33;;;;;;;5.30;2.88;;;24.00;47.60;;;;;;5120830;27;45317;-64
2023/10/03 08:22:00;;;;;;;4.60;2.97;;;24.00;47.60;;;;;;5121732;27;45582;-65
2023/10/03 08:24:28;;;;;;;5.35;2.90;;;24.00;47.50;;;;;;5111871;27;45447;-67
2023/10/03 08:26:59;;;;;;;4.20;2.97;;;24.10;47.40;;;;;;5114445;27;45625;-67
2023/10/03 08:29:26;;;;;;;5.43;3.03;;;24.10;47.30;;;;;;5121428;27;45316;-67
2023/10/03 08:31:57;;;;;;;4.57;2.90;;;24.10;46.90;;;;;;5127898;27;45317;-70
2023/10/03 08:34:23;;;;;;;5.93;2.90;;;24.10;46.50;;;;;;5127375;27;45322;-67
2023/10/03 08:36:54;;;;;;;3.40;2.53;;;24.20;46.20;;;;;;5116871;27;45476;-69
2023/10/03 08:39:22;;;;;;;3.20;2.78;;;24.20;46.10;;;;;;5120547;27;45240;-67
2023/10/03 08:41:54;;;;;;;5.03;2.75;;;24.30;46.10;;;;;;5126940;27;45383;-68
2023/10/03 08:44:24;;;;;;;5.05;2.65;;;24.30;45.70;;;;;;5127129;27;45246;-66
2023/10/03 08:46:55;;;;;;;3.65;2.42;;;24.30;45.60;;;;;;5125537;27;45351;-69
2023/10/03 08:49:24;;;;;;;5.18;2.92;;;24.40;45.60;;;;;;5126576;27;45455;-68
2023/10/03 08:51:52;;;;;;;4.00;2.85;;;24.40;45.70;;;;;;5127490;27;45464;-68
2023/10/03 08:54:19;;;;;;;7.10;2.78;;;24.50;46.00;;;;;;5126298;27;45229;-66
2023/10/03 08:56:46;;;;;;;4.50;2.60;;;24.50;46.00;;;;;;5125645;27;45260;-69
2023/10/03 08:59:15;;;;;;;5.20;2.53;;;24.60;45.90;;;;;;5127461;27;45372;-68
2023/10/03 09:01:45;;;;;;;6.28;2.42;;;24.60;45.80;;;;;;5120539;27;45515;-70
2023/10/03 09:04:16;;;;;;;12.00;2.63;;;24.70;45.90;;;;;;5125345;27;45595;-66
2023/10/03 09:06:44;;;;;;;4.30;2.72;;;24.70;46.40;;;;;;5126576;27;45357;-67
2023/10/03 09:09:13;;;;;;;5.18;2.90;;;24.80;46.90;;;;;;5125050;27;45379;-69
2023/10/03 09:11:42;;;;;;;5.45;2.80;;;24.80;46.30;;;;;;5108823;27;46523;-69
2023/10/03 09:14:12;;;;;;;6.20;2.88;;;25.00;46.40;;;;;;5112424;27;45400;-67
2023/10/03 09:16:39;;;;;;;6.30;2.60;;;25.00;46.40;;;;;;5114903;27;46755;-68
2023/10/03 09:19:09;;;;;;;5.53;4.63;;;25.10;46.00;;;;;;5110007;27;45462;-65
2023/10/03 09:21:36;;;;;;;8.95;3.28;;;25.20;46.30;;;;;;5119723;27;45290;-65
2023/10/03 09:24:09;;;;;;;5.68;2.92;;;25.30;46.40;;;;;;5118781;27;45447;-65
2023/10/03 09:26:51;;;;;;;5.63;2.85;;;25.40;45.70;;;;;;5121564;27;46601;-67
2023/10/03 09:29:30;;;;;;;8.82;3.03;;;25.50;45.50;;;;;;5126992;27;45466;-68
2023/10/03 09:31:57;;;;;;;6.68;2.70;;;25.50;45.30;;;;;;5125802;27;45219;-67
2023/10/03 09:34:30;;;;;;;5.60;3.20;;;25.60;45.50;;;;;;5123999;27;45508;-64
2023/10/03 09:36:58;;;;;;;11.10;3.42;;;25.60;45.60;;;;;;5125965;27;46655;-64
2023/10/03 09:39:26;;;;;;;8.90;3.22;;;25.70;45.40;;;;;;5126974;27;45330;-69
2023/10/03 09:41:55;;;;;;;6.93;2.83;;;25.70;45.40;;;;;;5125611;27;45406;-67
2023/10/03 09:44:29;;;;;;;5.68;2.97;;;25.80;45.40;;;;;;5121658;27;45511;-65
2023/10/03 09:47:00;;;;;;;4.60;2.40;;;25.90;45.90;;;;;;5125345;27;45433;-65
2023/10/03 09:49:36;;;;;;;7.88;2.53;;;26.00;46.10;;;;;;5126460;27;45489;-64
2023/10/03 09:52:09;;;;;;;8.13;3.10;;;26.10;46.00;;;;;;5129472;27;45376;-63
2023/10/03 09:54:36;;;;;;;5.03;2.85;;;26.20;45.70;;;;;;5129457;27;45457;-67
2023/10/03 09:57:15;;;;;;;10.55;3.15;;;26.20;46.10;;;;;;5129627;27;45381;-68
2023/10/03 09:59:45;;;;;;;9.27;3.00;;;26.30;45.60;;;;;;5128725;27;45539;-66
2023/10/03 10:02:14;;;;;;;7.85;3.10;;;26.40;45.30;;;;;;5128421;27;45361;-65
2023/10/03 10:04:42;;;;;;;4.32;2.95;;;26.30;45.00;;;;;;5129895;27;45530;-65
2023/10/03 10:07:16;;;;;;;8.50;3.10;;;26.40;45.00;;;;;;5129849;27;47085;-64
2023/10/03 10:09:47;;;;;;;8.23;3.03;;;26.40;45.00;;;;;;5129192;27;45299;-64
2023/10/03 10:12:18;;;;;;;6.45;3.05;;;26.40;45.30;;;;;;5128977;27;45219;-64
2023/10/03 10:15:13;;;;;;;8.43;3.40;;;26.50;45.30;;;;;;5127938;27;45531;-64
2023/10/03 10:17:52;;;;;;;6.43;2.78;;;26.50;45.80;;;;;;5127532;27;45466;-66
2023/10/03 10:20:27;;;;;;;6.63;3.60;;;26.40;46.50;;;;;;5129435;27;45314;-64
2023/10/03 10:23:12;;;;;;;5.93;3.53;;;26.40;47.00;;;;;;5129707;27;45444;-64
2023/10/03 10:25:42;;;;;;;13.95;3.55;;;26.40;47.20;;;;;;5130077;27;45239;-64
2023/10/03 10:28:14;;;;;;;8.77;3.65;;;26.40;47.30;;;;;;5128919;27;46381;-64
2023/10/03 10:30:44;;;;;;;7.80;4.18;;;26.50;47.40;;;;;;5128897;27;46285;-64
2023/10/03 10:33:25;;;;;;;5.78;3.15;;;26.50;47.60;;;;;;5129702;27;44787;-64
2023/10/03 10:35:54;;;;;;;8.93;3.20;;;26.60;47.50;;;;;;5129707;27;45357;-64
2023/10/03 10:38:21;;;;;;;4.47;3.22;;;26.60;47.40;;;;;;5129143;27;46654;-65
2023/10/03 10:41:22;;;;;;;8.90;3.47;;;26.50;47.30;;;;;;5129353;27;45477;-65
2023/10/03 10:44:13;;;;;;;4.80;3.33;;;26.50;47.40;;;;;;5122752;27;45302;-64
2023/10/03 10:46:43;;;;;;;6.72;3.42;;;26.50;47.40;;;;;;5118283;27;45440;-65
2023/10/03 10:49:44;;;;;;;5.32;3.20;;;26.50;47.60;;;;;;5117313;27;45572;-65
2023/10/03 10:52:13;;;;;;;7.75;3.22;;;26.50;47.50;;;;;;5120269;27;45333;-65
2023/10/03 10:54:41;;;;;;;14.10;4.30;;;26.50;48.40;;;;;;5129425;27;45562;-64
2023/10/03 10:57:10;;;;;;;10.43;3.30;;;26.50;47.80;;;;;;5128548;27;45335;-64
2023/10/03 10:59:40;;;;;;;4.03;3.08;;;26.50;47.90;;;;;;5126956;27;45493;-66
2023/10/03 11:02:16;;;;;;;7.63;3.47;;;26.40;48.10;;;;;;5128454;27;45365;-65
2023/10/03 11:04:43;;;;;;;5.82;3.20;;;26.50;48.10;;;;;;5129079;27;45377;-65
2023/10/03 11:07:10;;;;;;;6.32;3.03;;;26.40;48.30;;;;;;5128913;27;45255;-66
2023/10/03 11:09:38;;;;;;;6.22;3.22;;;26.50;48.40;;;;;;5128768;27;46752;-66
2023/10/03 11:12:06;;;;;;;4.78;3.00;;;26.50;48.40;;;;;;5128704;27;45410;-66
2023/10/03 11:14:33;;;;;;;7.55;3.63;;;26.40;48.30;;;;;;5128638;27;45357;-66
2023/10/03 11:17:01;;;;;;;6.10;3.42;;;26.40;48.50;;;;;;5128833;27;45601;-66
2023/10/03 11:19:30;;;;;;;6.22;3.60;;;26.30;48.80;;;;;;5128441;27;46703;-65
2023/10/03 11:21:56;;;;;;;8.70;3.83;;;26.40;48.80;;;;;;5127948;27;45377;-66
2023/10/03 11:24:24;;;;;;;8.20;3.38;;;26.50;48.70;;;;;;5128793;27;45385;-66
2023/10/03 11:26:53;;;;;;;7.20;3.78;;;26.50;48.70;;;;;;5128894;27;45458;-66
2023/10/03 11:29:37;;;;;;;8.23;3.38;;;26.60;48.60;;;;;;5127800;27;47386;-65
2023/10/03 11:32:04;;;;;;;5.63;3.30;;;26.80;48.50;;;;;;5128551;27;45256;-65
2023/10/03 11:34:32;;;;;;;5.50;3.30;;;26.80;48.10;;;;;;5128476;27;45345;-66
2023/10/03 11:37:00;;;;;;;7.43;3.55;;;26.80;48.10;;;;;;5128712;27;45461;-65
2023/10/03 11:39:28;;;;;;;7.22;3.30;;;26.90;48.00;;;;;;5128075;27;45317;-66
2023/10/03 11:42:00;;;;;;;8.05;3.25;;;27.10;47.70;;;;;;5127906;27;45345;-66
2023/10/03 11:44:29;;;;;;;6.45;3.63;;;27.20;47.20;;;;;;5128387;27;45292;-65
2023/10/03 11:46:56;;;;;;;6.20;3.72;;;27.30;47.50;;;;;;5128465;27;45323;-66
2023/10/03 11:49:23;;;;;;;7.90;3.67;;;27.40;47.40;;;;;;5127901;27;45356;-65
2023/10/03 11:51:50;;;;;;;8.90;3.75;;;27.50;46.70;;;;;;5128090;27;45337;-65
2023/10/03 11:54:17;;;;;;;8.13;3.72;;;27.50;46.70;;;;;;5127850;27;45316;-65
2023/10/03 11:56:44;;;;;;;6.72;3.13;;;27.60;46.70;;;;;;5128372;27;45319;-65
2023/10/03 11:59:14;;;;;;;4.78;2.95;;;27.60;46.80;;;;;;5128394;27;46630;-65
2023/10/03 12:01:43;;;;;;;5.88;3.55;;;27.60;46.80;;;;;;5127893;27;45393;-66
2023/10/03 12:04:11;;;;;;;5.60;2.92;;;27.70;46.60;;;;;;5127929;27;45422;-65
2023/10/03 12:06:38;;;;;;;4.28;3.17;;;27.70;46.70;;;;;;5128945;27;45445;-65
2023/10/03 12:09:08;;;;;;;4.38;3.15;;;27.70;46.60;;;;;;5129126;27;45468;-65
2023/10/03 12:11:36;;;;;;;3.83;3.10;;;27.60;46.90;;;;;;5127845;27;45299;-65
2023/10/03 12:14:03;;;;;;;3.85;3.10;;;27.50;47.00;;;;;;5128373;27;45424;-63
2023/10/03 12:16:31;;;;;;;4.60;2.85;;;27.50;47.30;;;;;;5128438;27;45460;-64
2023/10/03 12:18:58;;;;;;;7.80;3.72;;;27.50;47.30;;;;;;5126987;27;46349;-65
2023/10/03 12:21:26;;;;;;;7.68;3.50;;;27.50;47.30;;;;;;5128071;27;45188;-65
2023/10/03 12:23:52;;;;;;;7.13;3.33;;;27.50;47.40;;;;;;5119585;27;45413;-64
2023/10/03 12:26:19;;;;;;;10.82;3.03;;;27.60;47.40;;;;;;5121553;27;45306;-66
2023/10/03 12:28:46;;;;;;;6.05;3.40;;;27.50;47.20;;;;;;5127658;27;47391;-66
2023/10/03 12:31:13;;;;;;;8.07;3.35;;;27.50;47.50;;;;;;5109404;27;45323;-65
2023/10/03 12:33:42;;;;;;;5.85;3.60;;;27.50;47.50;;;;;;5112186;27;45314;-66
2023/10/03 12:36:14;;;;;;;4.63;3.25;;;27.30;47.60;;;;;;5128503;27;45414;-66
2023/10/03 12:38:42;;;;;;;8.57;3.75;;;27.20;47.90;;;;;;5128114;27;45197;-66
2023/10/03 12:41:09;;;;;;;6.85;3.40;;;27.10;47.90;;;;;;5128183;27;45523;-66
2023/10/03 12:43:37;;;;;;;6.55;3.38;;;27.10;48.00;;;;;;5127704;27;45333;-65
2023/10/03 12:46:04;;;;;;;4.82;3.40;;;27.10;48.00;;;;;;5128885;27;45237;-65
2023/10/03 12:48:31;;;;;;;6.47;3.58;;;26.90;48.20;;;;;;5125280;27;45509;-66
2023/10/03 12:51:00;;;;;;;5.95;3.35;;;26.90;48.40;;;;;;5124017;27;45361;-66
2023/10/03 12:53:35;;;;;;;5.95;3.40;;;26.90;48.40;;;;;;5127731;27;45402;-65
2023/10/03 12:56:02;;;;;;;13.40;3.80;;;26.90;48.60;;;;;;5129462;27;45242;-66